CJP9 weather

Charlot River Airport
Charlot River, Saskatchewan, Canada

Public forecast

Using degrees Celsius for public forecast. Weather courtesy of forecast.io.

Closest aviation weather report (METAR) to Charlot River Airport

Closest report is Fort Chipewyan Airport, 78.9 nm (146.0 km) SW. Retrieved 2020/06/05 12:00 UTC (49 minutes ago):

CYPY 051200Z AUTO 10006KT 9SM CLR 09/04 A3002 RMK SLP173

Closest aviation forecast (TAF) to Charlot River Airport

Closest forecast is Fort Chipewyan Airport, 78.9 nm (146.0 km) SW. Retrieved 2020/06/05 12:48 UTC (52 seconds ago):

TAF CYPY 051144Z 0512/0524 11006KT P6SM FEW200 FM051500 08010KT P6SM BKN180 RMK FCST BASED ON AUTO OBS NXT FCST BY 051800Z